Time;durP1;ratioP1;P1;durP2;ratioP2;P2;SDS_P1;SDS_P2;PMS_P1;PMS_P2;Temp;Humidity;BMP_temperature;BMP_pressure;BME280_temperature;BME280_humidity;BME280_pressure;Samples;Min_cycle;Max_cycle;Signal;HPM_P1;HPM_P2
2022/07/31 00:00:22;;;;;;;4.43;3.90;;;;;;;19.17;68.14;101826.19;4768173;30;20139;-75
2022/07/31 00:02:50;;;;;;;5.38;4.38;;;;;;;19.13;67.14;101824.91;4769226;30;20544;-75
2022/07/31 00:05:17;;;;;;;6.82;4.50;;;;;;;19.09;67.83;101818.97;4752867;30;20090;-75
2022/07/31 00:07:43;;;;;;;4.45;4.03;;;;;;;19.08;68.51;101820.16;4752375;30;20056;-75
2022/07/31 00:10:10;;;;;;;4.68;3.92;;;;;;;19.07;68.20;101813.28;4768527;30;20049;-75
2022/07/31 00:12:37;;;;;;;9.65;4.57;;;;;;;19.05;68.24;101813.75;4769021;30;20501;-75
2022/07/31 00:15:06;;;;;;;7.88;4.50;;;;;;;19.06;68.18;101809.09;4768912;29;20056;-75
2022/07/31 00:17:33;;;;;;;4.88;4.10;;;;;;;19.04;68.97;101811.53;4768767;30;20079;-75
2022/07/31 00:19:59;;;;;;;7.15;4.50;;;;;;;19.02;68.44;101812.00;4768400;30;20055;-75
2022/07/31 00:22:26;;;;;;;5.07;4.43;;;;;;;19.02;68.83;101819.34;4768949;30;20052;-75
2022/07/31 00:24:53;;;;;;;6.25;4.38;;;;;;;19.01;69.53;101820.56;4768853;30;20056;-75
2022/07/31 00:27:19;;;;;;;4.53;4.15;;;;;;;18.99;69.06;101816.38;4752940;30;20582;-75
2022/07/31 00:29:46;;;;;;;5.07;4.50;;;;;;;18.98;69.32;101812.22;4769082;29;20519;-75
2022/07/31 00:32:13;;;;;;;5.30;4.90;;;;;;;18.93;69.69;101814.84;4767161;30;20062;-75
2022/07/31 00:34:39;;;;;;;5.32;4.85;;;;;;;18.85;70.25;101817.19;4752005;30;20056;-75
2022/07/31 00:37:06;;;;;;;7.00;4.75;;;;;;;18.81;70.47;101822.03;4767275;30;20076;-76
2022/07/31 00:39:33;;;;;;;5.25;4.75;;;;;;;18.79;69.83;101812.94;4767071;30;20169;-76
2022/07/31 00:41:59;;;;;;;6.95;4.88;;;;;;;18.80;70.27;101809.00;4766973;29;20481;-75
2022/07/31 00:44:26;;;;;;;6.10;4.90;;;;;;;18.82;70.31;101803.88;4767579;30;20139;-75
2022/07/31 00:46:53;;;;;;;10.32;4.97;;;;;;;18.82;70.12;101796.53;4768303;30;20044;-76
2022/07/31 00:49:20;;;;;;;5.28;4.75;;;;;;;18.83;70.39;101792.63;4752275;30;20056;-76
2022/07/31 00:51:47;;;;;;;5.57;5.22;;;;;;;18.86;70.16;101785.56;4767081;30;20048;-76
2022/07/31 00:54:14;;;;;;;4.65;4.25;;;;;;;18.85;70.33;101775.97;4768125;30;20075;-76
2022/07/31 00:56:50;;;;;;;5.32;4.82;;;;;;;18.83;70.72;101773.75;4767228;30;20048;-76
2022/07/31 00:59:16;;;;;;;5.18;4.70;;;;;;;18.81;70.92;101764.63;4752500;30;20052;-75
2022/07/31 01:01:50;;;;;;;5.55;5.13;;;;;;;18.79;70.58;101770.53;4768378;30;20070;-76
2022/07/31 01:04:17;;;;;;;5.47;5.03;;;;;;;18.77;71.28;101775.66;4751873;30;20071;-76
2022/07/31 01:06:45;;;;;;;5.80;5.20;;;;;;;18.76;71.06;101766.09;4752088;30;20060;-76
2022/07/31 01:09:13;;;;;;;6.13;4.90;;;;;;;18.77;71.32;101772.22;4764205;30;20610;-76
2022/07/31 01:11:49;;;;;;;7.05;4.70;;;;;;;18.76;71.00;101768.78;4766630;30;20056;-76
2022/07/31 01:14:19;;;;;;;10.70;5.25;;;;;;;18.72;71.96;101767.50;4766030;30;20110;-76
2022/07/31 01:16:48;;;;;;;8.40;5.13;;;;;;;18.64;72.35;101767.88;4766985;30;20091;-76
2022/07/31 01:19:36;;;;;;;15.98;5.63;;;;;;;18.65;71.98;101771.31;4765818;30;20068;-76
2022/07/31 01:22:30;;;;;;;10.48;5.60;;;;;;;18.60;72.09;101766.59;4766833;30;20075;-76
2022/07/31 01:25:12;;;;;;;6.38;5.00;;;;;;;18.55;73.19;101764.53;4768167;30;20102;-76
2022/07/31 01:27:59;;;;;;;12.05;5.05;;;;;;;18.55;72.32;101759.16;4766915;30;20153;-76
2022/07/31 01:30:32;;;;;;;5.10;4.80;;;;;;;18.58;72.85;101758.94;4766754;30;20122;-76
2022/07/31 01:33:07;;;;;;;5.75;5.25;;;;;;;18.60;73.00;101753.13;4766093;30;20056;-76
2022/07/31 01:35:40;;;;;;;6.30;5.65;;;;;;;18.59;72.83;101755.03;4766353;30;20059;-76
2022/07/31 01:38:15;;;;;;;7.28;5.40;;;;;;;18.54;73.20;101755.69;4766602;30;20056;-75
2022/07/31 01:40:55;;;;;;;5.43;5.00;;;;;;;18.49;73.73;101756.38;4766782;30;20428;-76
2022/07/31 01:43:38;;;;;;;5.63;5.22;;;;;;;18.47;73.67;101749.97;4767974;30;20518;-76
2022/07/31 01:46:08;;;;;;;9.82;5.13;;;;;;;18.45;74.08;101758.50;4750997;30;20049;-76
2022/07/31 01:48:39;;;;;;;6.33;5.27;;;;;;;18.46;73.70;101764.66;4766136;30;20126;-76
2022/07/31 01:51:08;;;;;;;8.45;5.03;;;;;;;18.44;74.07;101758.97;4766396;30;20478;-76
2022/07/31 01:53:37;;;;;;;5.45;4.90;;;;;;;18.41;74.68;101755.28;4766337;30;20594;-76
2022/07/31 01:56:06;;;;;;;5.30;4.85;;;;;;;18.37;74.29;101757.44;4766413;29;20498;-76
2022/07/31 01:58:38;;;;;;;5.30;4.90;;;;;;;18.35;74.75;101751.03;4767749;30;20160;-76
2022/07/31 02:01:34;;;;;;;6.80;4.93;;;;;;;18.35;74.40;101759.13;4766053;30;20044;-76
2022/07/31 02:04:01;;;;;;;5.50;4.60;;;;;;;18.31;75.46;101759.31;4752119;30;20056;-76
2022/07/31 02:06:30;;;;;;;5.93;4.82;;;;;;;18.29;74.37;101754.41;4752054;30;20052;-76
2022/07/31 02:08:59;;;;;;;5.10;4.50;;;;;;;18.30;75.04;101755.88;4769162;30;20052;-76
2022/07/31 02:11:27;;;;;;;5.30;4.93;;;;;;;18.30;75.33;101752.44;4769252;30;20598;-76
2022/07/31 02:13:56;;;;;;;5.50;4.60;;;;;;;18.29;75.24;101761.72;4769029;30;20545;-76
2022/07/31 02:16:25;;;;;;;5.55;5.10;;;;;;;18.26;75.25;101754.59;4768902;30;20063;-76
2022/07/31 02:19:01;;;;;;;5.03;4.72;;;;;;;18.23;76.15;101755.53;4769240;30;20060;-76
2022/07/31 02:21:31;;;;;;;5.35;4.80;;;;;;;18.23;75.13;101752.81;4770563;30;20053;-76
2022/07/31 02:23:57;;;;;;;5.85;4.78;;;;;;;18.19;75.88;101758.41;4769293;30;20060;-76
2022/07/31 02:26:26;;;;;;;5.10;4.65;;;;;;;18.13;76.33;101743.34;4753833;30;20052;-76
2022/07/31 02:28:55;;;;;;;5.75;4.70;;;;;;;18.14;76.46;101745.59;4769091;30;20090;-76
2022/07/31 02:31:25;;;;;;;5.18;4.70;;;;;;;18.13;76.54;101744.09;4768494;30;20110;-76
2022/07/31 02:34:00;;;;;;;4.95;4.65;;;;;;;18.10;76.14;101738.91;4768862;30;20544;-76
2022/07/31 02:36:34;;;;;;;9.43;4.82;;;;;;;18.07;77.19;101739.84;4768989;30;20501;-76
2022/07/31 02:39:05;;;;;;;9.85;5.18;;;;;;;18.08;76.84;101730.53;4753900;30;20512;-76
2022/07/31 02:41:32;;;;;;;5.07;4.60;;;;;;;18.09;76.85;101729.34;4754085;30;20060;-76
2022/07/31 02:43:59;;;;;;;5.15;4.68;;;;;;;18.08;76.71;101733.25;4770100;30;20044;-76
2022/07/31 02:46:29;;;;;;;5.28;4.50;;;;;;;18.02;76.74;101735.84;4769642;30;20531;-76
2022/07/31 02:48:57;;;;;;;5.18;4.80;;;;;;;17.99;77.92;101726.75;4768449;30;20121;-76
2022/07/31 02:51:23;;;;;;;4.82;4.45;;;;;;;17.99;77.53;101728.72;4768638;30;20122;-76
2022/07/31 02:53:53;;;;;;;5.30;4.90;;;;;;;17.99;77.69;101736.81;4753963;30;20052;-76
2022/07/31 02:56:23;;;;;;;6.47;5.00;;;;;;;17.93;78.75;101733.28;4768884;30;20410;-76
2022/07/31 02:58:50;;;;;;;5.15;4.80;;;;;;;17.92;77.53;101727.16;4767962;30;20594;-76
2022/07/31 03:01:23;;;;;;;5.40;4.95;;;;;;;17.94;77.72;101724.72;4768527;30;20477;-76
2022/07/31 03:03:51;;;;;;;5.70;5.20;;;;;;;17.95;77.63;101717.41;4768623;30;20143;-76
2022/07/31 03:06:18;;;;;;;7.75;5.50;;;;;;;17.96;77.67;101716.19;4768738;29;20063;-76
2022/07/31 03:08:44;;;;;;;9.85;5.88;;;;;;;17.94;77.50;101719.34;4768415;30;20143;-76
2022/07/31 03:11:15;;;;;;;6.43;5.93;;;;;;;17.90;78.19;101721.47;4768106;30;20060;-75
2022/07/31 03:13:42;;;;;;;7.00;6.40;;;;;;;17.89;77.72;101725.38;4769364;30;20083;-76
2022/07/31 03:16:10;;;;;;;8.20;6.13;;;;;;;17.92;77.11;101710.25;4769791;30;20095;-76
2022/07/31 03:18:39;;;;;;;6.93;6.20;;;;;;;17.90;77.28;101699.94;4767288;30;20216;-76
2022/07/31 03:21:09;;;;;;;6.85;6.25;;;;;;;17.91;77.05;101689.91;4768298;30;20063;-76
2022/07/31 03:23:37;;;;;;;8.82;6.75;;;;;;;17.91;77.08;101696.03;4769738;30;20048;-76
2022/07/31 03:26:07;;;;;;;7.68;6.97;;;;;;;17.91;76.84;101697.97;4768182;30;20075;-76
2022/07/31 03:28:34;;;;;;;7.47;6.88;;;;;;;17.88;76.89;101704.31;4752931;30;20063;-76
2022/07/31 03:31:01;;;;;;;8.98;7.20;;;;;;;17.88;76.72;101702.34;4768448;30;20204;-76
2022/07/31 03:33:29;;;;;;;7.35;6.70;;;;;;;17.90;76.50;101699.94;4753307;30;20152;-76
2022/07/31 03:35:56;;;;;;;7.93;7.05;;;;;;;17.89;77.78;101693.06;4768510;30;20135;-76
2022/07/31 03:38:23;;;;;;;9.68;7.10;;;;;;;17.89;76.65;101698.44;4767790;30;20056;-76
2022/07/31 03:41:29;;;;;;;8.93;6.80;;;;;;;17.89;76.83;101698.44;4768120;29;20060;-76
2022/07/31 03:43:58;;;;;;;7.15;6.45;;;;;;;17.87;77.32;101686.66;4769180;30;20079;-76
2022/07/31 03:46:25;;;;;;;8.52;7.18;;;;;;;17.84;77.98;101684.91;4767997;30;20491;-76
2022/07/31 03:48:52;;;;;;;8.02;7.32;;;;;;;17.84;77.52;101682.19;4767612;30;20088;-76
2022/07/31 03:51:22;;;;;;;9.25;7.32;;;;;;;17.81;77.50;101693.91;4767858;30;20068;-76
2022/07/31 03:53:50;;;;;;;8.27;7.18;;;;;;;17.84;77.27;101691.03;4767845;30;20506;-76
2022/07/31 03:56:47;;;;;;;7.30;6.60;;;;;;;17.85;77.16;101689.81;4766960;29;20052;-76
2022/07/31 03:59:18;;;;;;;10.80;7.05;;;;;;;17.82;78.06;101690.00;4752838;30;20052;-76
2022/07/31 04:01:47;;;;;;;7.35;6.70;;;;;;;17.81;78.12;101685.81;4767510;30;20056;-76
2022/07/31 04:04:39;;;;;;;7.00;6.50;;;;;;;17.82;78.57;101696.13;4767450;30;20099;-76
2022/07/31 04:07:06;;;;;;;7.63;6.22;;;;;;;17.80;78.60;101690.47;4767374;30;20466;-76
2022/07/31 04:09:33;;;;;;;8.50;6.63;;;;;;;17.81;79.18;101686.56;4766979;30;20059;-76
2022/07/31 04:12:02;;;;;;;9.40;6.38;;;;;;;17.84;79.12;101690.28;4766707;30;20167;-76
2022/07/31 04:14:29;;;;;;;6.30;5.68;;;;;;;17.81;79.10;101691.94;4767523;30;20503;-76
2022/07/31 04:16:56;;;;;;;7.03;6.15;;;;;;;17.82;79.72;101684.63;4769215;30;20504;-76
2022/07/31 04:19:24;;;;;;;6.35;5.80;;;;;;;17.81;79.44;101686.56;4767707;30;20071;-76
2022/07/31 04:21:50;;;;;;;8.98;6.10;;;;;;;17.83;79.45;101691.50;4767479;30;20053;-76
2022/07/31 04:24:17;;;;;;;12.25;6.28;;;;;;;17.87;79.42;101692.78;4768962;30;20053;-76
2022/07/31 04:27:03;;;;;;;7.00;6.40;;;;;;;17.89;79.45;101689.63;4766501;30;20497;-76
2022/07/31 04:29:41;;;;;;;6.32;5.72;;;;;;;17.90;80.23;101691.84;4766942;30;20053;-76
2022/07/31 04:32:08;;;;;;;7.55;6.45;;;;;;;17.92;80.30;101683.31;4767431;30;20066;-76
2022/07/31 04:34:41;;;;;;;9.63;6.43;;;;;;;17.90;80.76;101677.63;4752548;30;20052;-76
2022/07/31 04:37:07;;;;;;;10.32;6.13;;;;;;;17.89;81.07;101676.91;4767215;30;21050;-76
2022/07/31 04:39:34;;;;;;;7.95;6.35;;;;;;;17.89;81.97;101674.22;4767224;29;20056;-77
2022/07/31 04:42:01;;;;;;;9.77;6.60;;;;;;;17.90;82.08;101675.69;4751913;30;20079;-76
2022/07/31 04:44:30;;;;;;;7.55;6.72;;;;;;;17.90;82.81;101672.25;4752218;30;20540;-76
2022/07/31 04:46:59;;;;;;;6.90;6.30;;;;;;;17.89;82.37;101668.06;4752245;30;20056;-76
2022/07/31 04:49:26;;;;;;;10.60;6.95;;;;;;;17.92;82.67;101670.59;4767031;30;20068;-76
2022/07/31 04:51:53;;;;;;;9.10;6.68;;;;;;;17.95;83.30;101669.66;4766949;30;20148;-76
2022/07/31 04:54:19;;;;;;;11.88;6.63;;;;;;;17.97;82.91;101671.88;4767291;30;20060;-76
2022/07/31 04:56:47;;;;;;;10.07;7.40;;;;;;;18.00;82.59;101660.88;4767106;30;20126;-76
2022/07/31 04:59:16;;;;;;;11.18;7.75;;;;;;;18.03;82.87;101663.84;4767121;30;20063;-76
2022/07/31 05:01:46;;;;;;;9.65;7.47;;;;;;;18.08;83.07;101665.88;4752380;30;20144;-76
2022/07/31 05:04:17;;;;;;;13.95;7.55;;;;;;;18.12;81.81;101664.47;4767453;30;20482;-76
2022/07/31 05:06:47;;;;;;;10.90;8.10;;;;;;;18.17;81.49;101661.13;4766642;30;20183;-76
2022/07/31 05:09:16;;;;;;;8.30;7.07;;;;;;;18.22;81.61;101665.09;4766190;30;20052;-76
2022/07/31 05:11:46;;;;;;;9.48;7.82;;;;;;;18.25;81.39;101654.13;4752120;30;20066;-76
2022/07/31 05:14:15;;;;;;;8.40;7.35;;;;;;;18.30;81.55;101655.41;4751663;30;20048;-76
2022/07/31 05:16:42;;;;;;;8.95;7.40;;;;;;;18.33;81.09;101655.22;4766839;30;20056;-76
2022/07/31 05:19:09;;;;;;;10.60;7.53;;;;;;;18.35;81.50;101668.22;4766703;30;20545;-76
2022/07/31 05:21:52;;;;;;;9.18;8.05;;;;;;;18.35;81.47;101656.69;4767307;30;20138;-77
2022/07/31 05:24:44;;;;;;;12.88;8.20;;;;;;;18.35;81.74;101667.47;4764911;30;20072;-77
2022/07/31 05:27:11;;;;;;;12.68;7.97;;;;;;;18.36;82.22;101666.28;4765917;30;20190;-78
2022/07/31 05:29:40;;;;;;;13.73;8.23;;;;;;;18.37;81.50;101660.41;4765565;30;20573;-77
2022/07/31 05:32:07;;;;;;;14.23;8.00;;;;;;;18.39;81.48;101663.38;4751180;30;20078;-78
2022/07/31 05:34:35;;;;;;;9.75;7.60;;;;;;;18.38;81.98;101667.28;4765654;30;20056;-77
2022/07/31 05:37:02;;;;;;;12.05;7.72;;;;;;;18.37;82.01;101670.44;4765437;30;20060;-78
2022/07/31 05:39:31;;;;;;;9.93;7.82;;;;;;;18.38;81.69;101661.88;4750214;30;20063;-78
2022/07/31 05:42:16;;;;;;;10.57;7.57;;;;;;;18.40;81.87;101664.09;4766226;30;20064;-78
2022/07/31 05:45:01;;;;;;;9.65;7.85;;;;;;;18.40;82.08;101677.56;4768444;30;20582;-77
2022/07/31 05:47:28;;;;;;;8.95;7.65;;;;;;;18.43;81.72;101673.94;4753025;30;20062;-77
2022/07/31 05:50:07;;;;;;;10.52;7.88;;;;;;;18.42;82.20;101673.19;4753518;30;20060;-75
2022/07/31 05:52:33;;;;;;;10.20;6.88;;;;;;;18.45;82.25;101674.19;4767741;30;20084;-76
2022/07/31 05:55:26;;;;;;;8.63;7.50;;;;;;;18.48;81.83;101671.31;4766927;29;20056;-76
2022/07/31 05:58:12;;;;;;;8.80;7.90;;;;;;;18.47;81.84;101669.09;4766584;30;20060;-76
2022/07/31 06:00:44;;;;;;;13.15;7.50;;;;;;;18.48;82.23;101671.31;4768369;30;20070;-76
2022/07/31 06:03:11;;;;;;;12.90;7.60;;;;;;;18.48;82.52;101665.16;4769543;30;20056;-77
2022/07/31 06:05:58;;;;;;;12.73;7.50;;;;;;;18.49;81.92;101662.00;4770905;30;20063;-76
2022/07/31 06:08:25;;;;;;;8.73;7.40;;;;;;;18.53;82.29;101672.59;4768658;30;20060;-76
2022/07/31 06:10:55;;;;;;;9.45;7.68;;;;;;;18.56;82.17;101664.31;4754392;30;20143;-76
2022/07/31 06:13:24;;;;;;;9.57;7.63;;;;;;;18.57;82.10;101668.47;4770346;30;20053;-76
2022/07/31 06:15:51;;;;;;;8.95;7.95;;;;;;;18.61;82.36;101676.41;4769208;30;20056;-76
2022/07/31 06:18:19;;;;;;;8.38;7.57;;;;;;;18.61;82.71;101671.75;4754488;30;20498;-75
2022/07/31 06:20:49;;;;;;;12.57;8.07;;;;;;;18.64;82.33;101668.09;4769011;30;20064;-74
2022/07/31 06:23:16;;;;;;;8.30;7.50;;;;;;;18.73;82.80;101672.63;4768999;30;20103;-76
2022/07/31 06:26:12;;;;;;;10.85;7.95;;;;;;;18.81;81.92;101668.28;4768891;30;20062;-76
2022/07/31 06:28:39;;;;;;;13.85;8.60;;;;;;;18.84;82.10;101659.25;4768459;30;20064;-77
2022/07/31 06:31:19;;;;;;;7.35;6.70;;;;;;;18.94;79.99;101651.75;4768784;30;20056;-73
2022/07/31 06:33:47;;;;;;;9.40;7.72;;;;;;;19.00;81.05;101657.94;4769012;30;20060;-72
2022/07/31 06:36:17;;;;;;;13.35;8.40;;;;;;;18.99;81.44;101662.59;4768465;29;20477;-74
2022/07/31 06:38:57;;;;;;;14.32;9.10;;;;;;;18.97;81.42;101662.31;4755492;30;20060;-73
2022/07/31 06:41:47;;;;;;;14.88;9.73;;;;;;;18.95;81.63;101653.22;4768556;29;20114;-73
2022/07/31 06:44:27;;;;;;;13.85;9.27;;;;;;;18.98;82.09;101655.72;4768282;30;20056;-73
2022/07/31 06:47:12;;;;;;;11.25;10.05;;;;;;;18.95;81.85;101656.66;4768510;29;20138;-72
2022/07/31 06:50:05;;;;;;;11.33;10.00;;;;;;;18.96;82.29;101662.78;4768616;30;20139;-73
2022/07/31 06:52:42;;;;;;;12.82;9.95;;;;;;;19.05;81.83;101662.66;4767621;30;20118;-75
2022/07/31 06:55:09;;;;;;;10.73;9.73;;;;;;;19.03;82.38;101651.59;4768472;30;20060;-73
2022/07/31 06:57:38;;;;;;;10.70;9.48;;;;;;;19.03;82.77;101661.63;4768456;30;20056;-74
2022/07/31 07:00:05;;;;;;;14.65;10.52;;;;;;;19.09;82.24;101659.75;4768564;29;20064;-73
2022/07/31 07:02:46;;;;;;;12.13;10.25;;;;;;;19.15;82.27;101660.53;4768840;30;20574;-73
2022/07/31 07:05:13;;;;;;;11.52;9.38;;;;;;;19.19;81.94;101659.09;4768091;30;20067;-74
2022/07/31 07:07:40;;;;;;;16.33;9.52;;;;;;;19.26;82.21;101660.63;4768298;30;20137;-72
2022/07/31 07:10:07;;;;;;;11.63;9.73;;;;;;;19.28;82.06;101661.63;4768407;30;20113;-73
2022/07/31 07:13:00;;;;;;;16.95;9.48;;;;;;;19.35;81.47;101657.00;4768064;30;20056;-73
2022/07/31 07:15:31;;;;;;;12.75;9.88;;;;;;;19.31;81.98;101665.34;4768324;30;20475;-74
2022/07/31 07:17:58;;;;;;;11.25;9.57;;;;;;;19.36;81.98;101664.63;4768334;30;20114;-74
2022/07/31 07:20:32;;;;;;;13.52;8.95;;;;;;;19.49;81.73;101650.75;4767887;30;20534;-73
2022/07/31 07:22:59;;;;;;;13.35;9.82;;;;;;;19.56;81.58;101661.16;4768183;29;20052;-75
2022/07/31 07:25:46;;;;;;;17.73;10.65;;;;;;;19.62;81.11;101656.50;4759220;30;20072;-75
2022/07/31 07:28:14;;;;;;;14.70;11.02;;;;;;;19.65;81.77;101658.25;4768078;30;20060;-74
2022/07/31 07:30:57;;;;;;;11.23;10.05;;;;;;;19.75;80.98;101667.66;4767479;30;20056;-76
2022/07/31 07:33:25;;;;;;;19.20;12.07;;;;;;;19.82;81.01;101661.09;4753325;30;20487;-73
2022/07/31 07:36:09;;;;;;;16.95;12.10;;;;;;;19.84;80.51;101656.69;4767343;30;20056;-73
2022/07/31 07:39:08;;;;;;;20.40;13.75;;;;;;;19.90;81.41;101646.66;4767781;30;20052;-73
2022/07/31 07:41:35;;;;;;;22.60;13.32;;;;;;;19.96;82.43;101641.28;4767793;30;20055;-74
2022/07/31 07:44:01;;;;;;;20.40;13.75;;;;;;;20.06;82.82;101644.50;4752685;30;20060;-74
2022/07/31 07:46:29;;;;;;;20.75;13.05;;;;;;;20.17;81.77;101644.56;4768775;30;20052;-74
2022/07/31 07:48:59;;;;;;;19.65;12.95;;;;;;;20.20;81.96;101643.59;4766849;30;20064;-74
2022/07/31 07:51:55;;;;;;;22.63;13.40;;;;;;;20.31;81.30;101640.97;4767530;30;20064;-74
2022/07/31 07:54:38;;;;;;;19.23;12.80;;;;;;;20.33;80.47;101640.47;4768531;30;20134;-73
2022/07/31 07:57:20;;;;;;;27.67;13.95;;;;;;;20.46;80.85;101632.66;4767031;30;20063;-73
2022/07/31 08:00:08;;;;;;;17.50;12.45;;;;;;;20.53;80.04;101630.22;4768004;30;20068;-73
2022/07/31 08:02:52;;;;;;;17.88;13.30;;;;;;;20.53;79.62;101634.91;4767353;30;20095;-73
2022/07/31 08:05:40;;;;;;;16.35;12.32;;;;;;;20.50;79.96;101633.91;4766551;30;20052;-74
2022/07/31 08:08:08;;;;;;;19.52;13.23;;;;;;;20.49;79.85;101632.44;4767327;30;20538;-74
2022/07/31 08:10:48;;;;;;;14.73;12.53;;;;;;;20.48;79.44;101630.94;4767300;30;20052;-74
2022/07/31 08:13:28;;;;;;;19.05;12.95;;;;;;;20.50;79.89;101644.00;4767161;30;20274;-73
2022/07/31 08:16:03;;;;;;;20.10;13.30;;;;;;;20.50;79.95;101635.88;4766720;30;20075;-73
2022/07/31 08:18:53;;;;;;;18.83;13.05;;;;;;;20.46;79.96;101635.38;4766924;30;20114;-74
2022/07/31 08:21:23;;;;;;;19.95;13.23;;;;;;;20.43;80.19;101641.75;4767266;30;20510;-74
2022/07/31 08:23:51;;;;;;;17.88;13.00;;;;;;;20.45;80.00;101633.88;4766924;30;20052;-74
2022/07/31 08:26:20;;;;;;;17.58;12.93;;;;;;;20.45;80.71;101634.63;4767178;30;20147;-75
2022/07/31 08:28:48;;;;;;;20.95;13.15;;;;;;;20.51;80.26;101642.75;4752481;30;20099;-73
2022/07/31 08:31:18;;;;;;;21.23;14.57;;;;;;;20.43;82.87;101641.75;4752684;30;20576;-74
2022/07/31 08:34:08;;;;;;;24.80;14.10;;;;;;;20.29;83.32;101652.25;4766555;30;20064;-72
2022/07/31 08:36:36;;;;;;;23.55;14.55;;;;;;;20.20;84.81;101651.72;4767067;30;20048;-71
2022/07/31 08:39:03;;;;;;;21.08;14.57;;;;;;;20.13;84.85;101652.16;4766975;30;20060;-72
2022/07/31 08:41:45;;;;;;;27.77;16.83;;;;;;;20.02;85.81;101650.13;4766843;30;20059;-72
2022/07/31 08:44:13;;;;;;;24.90;16.60;;;;;;;20.03;86.36;101654.31;4767641;30;20068;-72
2022/07/31 08:46:40;;;;;;;23.42;16.63;;;;;;;20.06;87.30;101656.06;4772810;29;20399;-72
2022/07/31 08:49:08;;;;;;;28.40;17.75;;;;;;;20.12;86.34;101643.31;4766738;30;20157;-72
2022/07/31 08:51:40;;;;;;;24.23;16.48;;;;;;;20.16;87.49;101651.19;4767049;29;20562;-73
2022/07/31 08:54:22;;;;;;;23.95;15.93;;;;;;;20.30;87.89;101644.88;4767526;30;20056;-72
2022/07/31 08:56:52;;;;;;;22.05;16.77;;;;;;;20.31;87.33;101647.09;4766781;29;20754;-72
2022/07/31 08:59:19;;;;;;;26.67;18.08;;;;;;;20.40;88.26;101643.47;4752092;30;20112;-72
2022/07/31 09:01:46;;;;;;;25.13;16.65;;;;;;;20.54;87.76;101655.31;4766706;30;20059;-71
2022/07/31 09:04:12;;;;;;;23.65;16.38;;;;;;;20.66;86.92;101648.72;4766675;30;20064;-72
2022/07/31 09:06:40;;;;;;;27.98;17.75;;;;;;;20.76;87.00;101641.88;4766494;30;20219;-71
2022/07/31 09:09:06;;;;;;;26.38;17.65;;;;;;;20.83;85.84;101646.03;4752260;30;20576;-72
2022/07/31 09:11:48;;;;;;;24.40;17.90;;;;;;;20.89;85.43;101646.78;4766800;30;20059;-72
2022/07/31 09:14:33;;;;;;;26.65;18.50;;;;;;;21.02;85.69;101640.91;4766496;30;20159;-74
2022/07/31 09:17:06;;;;;;;25.77;17.35;;;;;;;21.06;86.85;101641.41;4768733;30;20134;-74
2022/07/31 09:19:41;;;;;;;29.37;18.77;;;;;;;21.00;85.10;101640.66;4769877;30;20114;-73
2022/07/31 09:22:25;;;;;;;29.50;19.45;;;;;;;20.90;85.64;101632.78;4769833;30;20485;-70
2022/07/31 09:25:10;;;;;;;31.52;19.15;;;;;;;20.98;85.85;101635.75;4769686;29;20135;-71
2022/07/31 09:27:38;;;;;;;23.98;18.45;;;;;;;20.91;85.27;101636.97;4769487;30;20510;-71
2022/07/31 09:30:06;;;;;;;25.85;19.13;;;;;;;20.83;85.15;101635.22;4768944;30;20082;-71
2022/07/31 09:33:18;;;;;;;24.52;18.15;;;;;;;20.80;85.10;101645.03;4770289;30;20062;-73
2022/07/31 09:36:22;;;;;;;24.80;18.52;;;;;;;20.71;85.76;101650.72;4770931;30;20052;-71
2022/07/31 09:38:55;;;;;;;27.85;18.83;;;;;;;20.66;85.98;101637.16;4769359;30;20517;-71
2022/07/31 09:41:50;;;;;;;26.77;18.67;;;;;;;20.58;86.38;101647.72;4776227;29;20115;-71
2022/07/31 09:44:42;;;;;;;23.63;18.20;;;;;;;20.57;87.38;101638.84;4768981;30;20370;-71
2022/07/31 09:47:25;;;;;;;26.20;19.08;;;;;;;20.68;87.29;101640.13;4768919;30;20079;-71
2022/07/31 09:49:54;;;;;;;25.90;18.80;;;;;;;20.76;87.89;101636.47;4769273;30;20592;-73
2022/07/31 09:52:21;;;;;;;28.10;19.55;;;;;;;20.76;87.19;101636.47;4770661;30;20084;-70
2022/07/31 09:54:59;;;;;;;25.73;19.67;;;;;;;20.78;86.06;101625.16;4769517;30;20063;-75
2022/07/31 09:57:27;;;;;;;23.88;19.02;;;;;;;20.84;86.79;101625.88;4769063;29;20055;-74
2022/07/31 09:59:56;;;;;;;24.80;18.65;;;;;;;20.89;85.74;101622.44;4768724;30;20091;-73
2022/07/31 10:02:26;;;;;;;23.58;17.33;;;;;;;21.03;85.43;101618.78;4769176;30;20530;-74
2022/07/31 10:04:56;;;;;;;20.17;16.58;;;;;;;21.16;84.77;101624.44;4769119;30;20052;-76
2022/07/31 10:07:28;;;;;;;19.00;16.95;;;;;;;21.34;83.94;101622.50;4768894;30;20091;-76
2022/07/31 10:10:03;;;;;;;25.35;16.98;;;;;;;21.38;84.39;101615.59;4769103;30;20062;-75
2022/07/31 10:12:45;;;;;;;23.33;17.02;;;;;;;21.58;82.36;101612.63;4769153;30;20064;-77
2022/07/31 10:15:15;;;;;;;19.08;15.93;;;;;;;21.69;83.13;101613.81;4768573;30;20059;-74
2022/07/31 10:17:53;;;;;;;20.67;17.20;;;;;;;21.98;81.33;101624.13;4769100;29;20052;-76
2022/07/31 10:20:53;;;;;;;20.65;16.52;;;;;;;22.34;80.89;101616.09;4769924;30;20056;-77
2022/07/31 10:23:51;;;;;;;18.98;16.60;;;;;;;22.24;80.42;101621.81;4769709;30;20121;-77
2022/07/31 10:26:18;;;;;;;19.55;16.10;;;;;;;22.39;80.54;101621.50;4769440;30;20067;-77
2022/07/31 10:28:46;;;;;;;19.90;15.82;;;;;;;22.24;78.93;101613.69;4767889;30;20131;-76
2022/07/31 10:31:14;;;;;;;19.70;16.25;;;;;;;22.08;80.24;101621.88;4768796;30;20151;-76
2022/07/31 10:33:43;;;;;;;18.38;16.23;;;;;;;21.77;80.02;101620.22;4768861;30;20060;-75
2022/07/31 10:36:43;;;;;;;19.00;16.98;;;;;;;21.61;81.52;101617.03;4769476;30;20489;-75
2022/07/31 10:39:30;;;;;;;20.75;17.63;;;;;;;21.60;81.39;101615.56;4769838;30;20138;-74
2022/07/31 10:42:45;;;;;;;21.25;16.88;;;;;;;21.66;81.61;101617.53;4769929;30;20483;-74
2022/07/31 10:45:13;;;;;;;18.02;16.17;;;;;;;21.74;82.36;101613.81;4768255;30;20084;-75
2022/07/31 10:48:00;;;;;;;21.95;17.55;;;;;;;21.62;82.22;101621.22;4768986;30;20052;-75
2022/07/31 10:50:47;;;;;;;20.55;17.73;;;;;;;21.56;82.72;101611.66;4769065;30;20068;-77
2022/07/31 10:53:52;;;;;;;24.95;17.98;;;;;;;21.59;82.93;101605.94;4770065;30;20086;-78
2022/07/31 10:56:57;;;;;;;21.05;16.95;;;;;;;21.51;83.59;101615.84;4761781;30;20134;-75
2022/07/31 10:59:37;;;;;;;20.70;18.63;;;;;;;21.42;83.31;101601.81;4768482;30;20114;-74
2022/07/31 11:02:33;;;;;;;19.45;17.42;;;;;;;21.50;83.81;101603.53;4767854;30;20056;-75
2022/07/31 11:05:22;;;;;;;20.60;18.08;;;;;;;21.66;84.10;101603.97;4768602;29;20072;-75
2022/07/31 11:08:06;;;;;;;49.90;41.60;;;;;;;21.75;84.02;101598.28;4768191;30;20068;-75
2022/07/31 11:10:49;;;;;;;22.10;18.98;;;;;;;21.70;83.57;101607.91;4768830;30;20519;-75
2022/07/31 11:13:54;;;;;;;23.83;17.92;;;;;;;21.67;82.69;101605.44;4768944;30;20118;-75
2022/07/31 11:16:51;;;;;;;19.15;16.88;;;;;;;21.55;82.89;101605.50;4768802;30;20118;-75
2022/07/31 11:19:39;;;;;;;28.75;16.65;;;;;;;21.46;82.54;101608.44;4768164;30;20084;-75
2022/07/31 11:22:14;;;;;;;17.88;16.25;;;;;;;21.44;83.46;101602.06;4769571;30;20062;-75
2022/07/31 11:24:59;;;;;;;19.27;16.92;;;;;;;21.49;83.15;101596.63;4768984;30;20079;-75
2022/07/31 11:27:33;;;;;;;18.05;16.33;;;;;;;21.55;82.26;101600.06;4768704;30;20044;-73
2022/07/31 11:30:07;;;;;;;17.38;15.77;;;;;;;21.49;83.23;101585.78;4769203;30;20060;-74
2022/07/31 11:32:40;;;;;;;16.75;15.18;;;;;;;21.52;83.61;101586.78;4769479;30;20056;-74
2022/07/31 11:35:07;;;;;;;16.98;15.10;;;;;;;21.49;82.99;101585.06;4768842;30;20061;-74
2022/07/31 11:37:34;;;;;;;17.25;15.55;;;;;;;21.61;83.07;101587.22;4769136;30;20056;-74
2022/07/31 11:40:21;;;;;;;17.25;14.65;;;;;;;21.60;82.68;101582.31;4767435;30;20141;-74
2022/07/31 11:42:53;;;;;;;17.73;15.73;;;;;;;21.47;82.94;101580.13;4768803;30;20121;-74
2022/07/31 11:45:51;;;;;;;15.95;14.50;;;;;;;21.49;82.80;101576.94;4769275;30;21051;-74
2022/07/31 11:48:19;;;;;;;16.17;14.55;;;;;;;21.47;82.96;101569.31;4768598;30;20052;-75